Time;durP1;ratioP1;P1;durP2;ratioP2;P2;SDS_P1;SDS_P2;PMS_P1;PMS_P2;Temp;Humidity;BMP_temperature;BMP_pressure;BME280_temperature;BME280_humidity;BME280_pressure;Samples;Min_cycle;Max_cycle;Signal;HPM_P1;HPM_P2
2023/06/14 00:01:16;;;;;;;7.03;2.97;;;15.70;75.20;;;;;;5070135;28;20103;-46
2023/06/14 00:03:42;;;;;;;4.60;2.70;;;15.60;75.40;;;;;;5078392;28;20028;-45
2023/06/14 00:06:08;;;;;;;3.92;2.40;;;15.60;75.40;;;;;;5072277;28;20228;-46
2023/06/14 00:08:33;;;;;;;3.28;2.47;;;15.50;75.80;;;;;;5080443;28;20054;-46
2023/06/14 00:10:59;;;;;;;4.80;3.20;;;15.50;76.50;;;;;;5079858;28;20059;-46
2023/06/14 00:13:25;;;;;;;4.93;2.70;;;15.40;76.40;;;;;;5075228;28;20012;-46
2023/06/14 00:15:54;;;;;;;5.85;2.70;;;15.40;76.90;;;;;;5079924;28;20434;-46
2023/06/14 00:18:23;;;;;;;2.88;2.58;;;15.40;77.00;;;;;;5073888;28;20557;-46
2023/06/14 00:20:51;;;;;;;3.67;2.70;;;15.30;77.20;;;;;;5089149;28;20032;-46
2023/06/14 00:23:16;;;;;;;3.22;2.65;;;15.30;77.60;;;;;;5077049;28;20386;-47
2023/06/14 00:25:42;;;;;;;3.67;2.80;;;15.20;78.00;;;;;;5079826;28;20032;-46
2023/06/14 00:28:07;;;;;;;5.22;2.90;;;15.20;78.30;;;;;;5077514;28;20516;-47
2023/06/14 00:30:34;;;;;;;5.28;3.00;;;15.20;77.90;;;;;;5077327;28;20024;-47
2023/06/14 00:33:00;;;;;;;3.65;2.63;;;15.10;77.70;;;;;;5079018;28;20062;-48
2023/06/14 00:35:25;;;;;;;3.67;2.75;;;15.00;78.20;;;;;;5077877;28;20028;-48
2023/06/14 00:37:51;;;;;;;3.65;2.63;;;15.00;77.70;;;;;;5084839;28;20060;-47
2023/06/14 00:40:16;;;;;;;3.78;2.50;;;15.10;78.50;;;;;;5085258;28;20016;-46
2023/06/14 00:42:42;;;;;;;5.25;2.40;;;15.00;78.60;;;;;;5060712;28;20068;-47
2023/06/14 00:45:08;;;;;;;4.15;2.50;;;15.00;78.30;;;;;;5078065;28;20111;-46
2023/06/14 00:47:37;;;;;;;4.88;2.75;;;14.90;78.50;;;;;;5089180;28;20373;-46
2023/06/14 00:50:03;;;;;;;3.55;2.80;;;14.90;78.30;;;;;;5086896;28;20396;-46
2023/06/14 00:52:29;;;;;;;5.50;2.75;;;14.90;78.60;;;;;;5082899;28;20042;-47
2023/06/14 00:54:54;;;;;;;4.50;2.55;;;14.90;78.50;;;;;;5080345;28;20016;-49
2023/06/14 00:57:21;;;;;;;5.53;2.72;;;14.90;78.60;;;;;;5075331;28;20021;-46
2023/06/14 00:59:48;;;;;;;4.95;2.60;;;14.90;79.40;;;;;;5076728;28;20020;-47
2023/06/14 01:02:14;;;;;;;4.10;3.03;;;14.80;80.10;;;;;;5076900;28;20478;-47
2023/06/14 01:04:41;;;;;;;5.57;2.65;;;14.80;79.30;;;;;;5076024;28;20031;-47
2023/06/14 01:07:13;;;;;;;5.65;2.75;;;14.70;79.50;;;;;;5077035;28;20529;-50
2023/06/14 01:10:08;;;;;;;4.43;2.40;;;14.70;79.80;;;;;;5083868;28;20035;-48
2023/06/14 01:12:52;;;;;;;3.78;2.47;;;14.70;80.10;;;;;;5079263;28;20019;-47
2023/06/14 01:15:20;;;;;;;3.70;2.65;;;14.70;79.40;;;;;;5066814;28;20517;-46
2023/06/14 01:17:47;;;;;;;4.78;2.70;;;14.70;80.30;;;;;;5066695;28;20027;-49
2023/06/14 01:20:17;;;;;;;3.50;2.40;;;14.70;79.90;;;;;;5070272;28;20070;-47
2023/06/14 01:22:53;;;;;;;6.00;2.78;;;14.70;80.10;;;;;;5068039;28;20035;-47
2023/06/14 01:25:20;;;;;;;5.30;2.60;;;14.60;80.00;;;;;;5065929;28;20562;-46
2023/06/14 01:27:49;;;;;;;8.77;2.72;;;14.60;81.10;;;;;;5075315;28;20031;-48
2023/06/14 01:30:15;;;;;;;3.63;2.85;;;14.60;80.60;;;;;;5068299;28;20217;-46
2023/06/14 01:32:41;;;;;;;4.45;2.42;;;14.50;80.60;;;;;;5066574;28;20127;-46
2023/06/14 01:35:07;;;;;;;7.68;2.40;;;14.50;81.00;;;;;;5081242;28;20170;-46
2023/06/14 01:37:33;;;;;;;3.65;2.80;;;14.50;81.10;;;;;;5080644;28;20024;-46
2023/06/14 01:39:59;;;;;;;3.42;2.67;;;14.40;81.80;;;;;;5078892;28;20105;-46
2023/06/14 01:42:25;;;;;;;2.58;2.20;;;14.30;81.60;;;;;;5072016;28;20020;-47
2023/06/14 01:44:53;;;;;;;3.80;2.33;;;14.30;82.00;;;;;;5069724;28;20012;-48
2023/06/14 01:47:19;;;;;;;5.45;2.75;;;14.20;82.90;;;;;;5068659;28;20017;-50
2023/06/14 01:49:46;;;;;;;5.75;2.85;;;14.20;82.50;;;;;;5069807;28;20066;-49
2023/06/14 01:52:12;;;;;;;4.97;2.50;;;14.20;82.50;;;;;;5069492;28;20023;-49
2023/06/14 01:54:42;;;;;;;5.47;2.47;;;14.20;83.20;;;;;;5074625;28;20016;-47
2023/06/14 01:57:08;;;;;;;4.25;2.42;;;14.10;83.10;;;;;;5073197;28;20025;-46
2023/06/14 01:59:34;;;;;;;4.57;2.90;;;14.00;83.10;;;;;;5068793;28;20231;-46
2023/06/14 02:02:02;;;;;;;5.93;2.70;;;14.00;83.40;;;;;;5067842;28;20020;-46
2023/06/14 02:04:28;;;;;;;3.08;2.50;;;14.00;84.30;;;;;;5067882;28;20553;-50
2023/06/14 02:06:53;;;;;;;4.95;2.13;;;13.90;84.50;;;;;;5076478;28;20036;-48
2023/06/14 02:09:19;;;;;;;2.75;2.15;;;13.90;85.20;;;;;;5087940;28;20077;-47
2023/06/14 02:11:44;;;;;;;4.78;2.70;;;13.80;85.10;;;;;;5071148;28;20363;-47
2023/06/14 02:14:11;;;;;;;2.63;2.15;;;13.70;85.70;;;;;;5071340;28;20123;-47
2023/06/14 02:16:38;;;;;;;4.38;2.85;;;13.70;86.50;;;;;;5077147;28;20020;-47
2023/06/14 02:19:04;;;;;;;5.28;2.80;;;13.70;86.20;;;;;;5081812;28;20024;-47
2023/06/14 02:21:30;;;;;;;4.22;2.70;;;13.70;86.50;;;;;;5070093;28;20028;-48
2023/06/14 02:23:55;;;;;;;5.63;2.58;;;13.60;86.70;;;;;;5073612;28;20381;-47
2023/06/14 02:26:22;;;;;;;5.15;2.50;;;13.60;87.30;;;;;;5074089;28;20584;-47
2023/06/14 02:28:48;;;;;;;3.28;2.40;;;13.60;87.80;;;;;;5083262;28;20485;-47
2023/06/14 02:31:14;;;;;;;6.65;2.95;;;13.50;88.00;;;;;;5080277;28;20035;-48
2023/06/14 02:33:40;;;;;;;3.55;2.95;;;13.40;88.90;;;;;;5080046;28;20157;-48
2023/06/14 02:36:06;;;;;;;4.60;2.40;;;13.40;89.40;;;;;;5079055;28;20138;-50
2023/06/14 02:38:31;;;;;;;5.47;2.58;;;13.50;89.10;;;;;;5084657;28;20028;-47
2023/06/14 02:40:59;;;;;;;3.17;2.20;;;13.40;89.50;;;;;;5091535;28;20020;-47
2023/06/14 02:43:24;;;;;;;2.60;2.40;;;13.30;90.00;;;;;;5078567;28;20066;-47
2023/06/14 02:45:50;;;;;;;3.13;2.80;;;13.30;90.10;;;;;;5078768;28;20024;-46
2023/06/14 02:48:16;;;;;;;3.95;2.60;;;13.30;90.20;;;;;;5082467;28;20024;-47
2023/06/14 02:50:41;;;;;;;3.10;2.72;;;13.30;90.40;;;;;;5076281;28;20024;-48
2023/06/14 02:53:07;;;;;;;3.20;2.72;;;13.20;90.50;;;;;;5078064;28;20099;-48
2023/06/14 02:55:33;;;;;;;4.82;2.78;;;13.30;90.60;;;;;;5070297;28;20275;-49
2023/06/14 02:57:58;;;;;;;3.78;2.75;;;13.10;90.80;;;;;;5070288;28;20081;-47
2023/06/14 03:00:24;;;;;;;7.47;3.40;;;13.20;90.80;;;;;;5069134;28;20436;-47
2023/06/14 03:02:51;;;;;;;3.78;2.60;;;13.20;91.00;;;;;;5070443;28;20437;-47
2023/06/14 03:05:20;;;;;;;3.83;2.60;;;13.20;91.00;;;;;;5070306;28;20021;-47
2023/06/14 03:07:47;;;;;;;4.80;2.53;;;13.20;91.50;;;;;;5085838;28;20043;-47
2023/06/14 03:10:13;;;;;;;2.92;2.60;;;13.10;91.70;;;;;;5082354;28;20296;-47
2023/06/14 03:12:39;;;;;;;5.32;2.92;;;13.10;92.00;;;;;;5081371;28;20459;-47
2023/06/14 03:15:05;;;;;;;7.07;3.17;;;13.00;92.20;;;;;;5064677;28;20028;-47
2023/06/14 03:17:33;;;;;;;4.68;2.83;;;13.00;92.50;;;;;;5068467;28;20032;-47
2023/06/14 03:19:59;;;;;;;7.95;2.80;;;13.00;92.50;;;;;;5086147;28;20016;-47
2023/06/14 03:22:25;;;;;;;4.68;2.70;;;13.00;92.90;;;;;;5081787;28;20401;-49
2023/06/14 03:24:52;;;;;;;3.15;2.50;;;12.90;93.10;;;;;;5088474;28;20024;-47
2023/06/14 03:27:18;;;;;;;4.25;3.17;;;12.90;93.30;;;;;;5081498;28;20024;-48
2023/06/14 03:29:44;;;;;;;5.82;2.67;;;12.90;93.80;;;;;;5081766;28;20020;-49
2023/06/14 03:32:09;;;;;;;3.95;2.50;;;12.90;94.00;;;;;;5084507;28;20385;-47
2023/06/14 03:34:35;;;;;;;3.95;2.55;;;12.90;94.10;;;;;;5089947;28;20448;-47
2023/06/14 03:37:00;;;;;;;3.88;2.80;;;12.90;94.40;;;;;;5081168;28;20031;-47
2023/06/14 03:39:26;;;;;;;6.65;2.97;;;12.90;94.50;;;;;;5086451;28;20021;-47
2023/06/14 03:41:52;;;;;;;4.57;3.22;;;12.90;95.10;;;;;;5070363;28;20035;-50
2023/06/14 03:44:18;;;;;;;11.60;3.00;;;12.90;95.20;;;;;;5073006;28;20032;-46
2023/06/14 03:46:45;;;;;;;7.90;3.40;;;12.90;95.50;;;;;;5081584;28;20021;-46
2023/06/14 03:49:11;;;;;;;4.43;2.92;;;12.90;95.60;;;;;;5081870;28;20096;-47
2023/06/14 03:51:37;;;;;;;4.72;3.47;;;12.90;96.00;;;;;;5076416;28;20021;-46
2023/06/14 03:54:02;;;;;;;5.38;3.03;;;12.90;96.20;;;;;;5078972;28;20029;-46
2023/06/14 03:56:28;;;;;;;5.10;3.00;;;12.90;96.40;;;;;;5083899;28;20021;-46
2023/06/14 03:58:53;;;;;;;5.10;2.80;;;13.00;96.50;;;;;;5077790;28;20039;-47
2023/06/14 04:01:19;;;;;;;4.15;2.80;;;13.00;97.10;;;;;;5069691;28;20467;-47
2023/06/14 04:03:45;;;;;;;7.60;3.17;;;13.00;97.10;;;;;;5069732;28;20021;-50
2023/06/14 04:06:11;;;;;;;3.67;2.83;;;13.00;97.20;;;;;;5078841;28;20032;-47
2023/06/14 04:08:39;;;;;;;5.85;3.35;;;13.00;97.50;;;;;;5089786;28;20563;-48
2023/06/14 04:11:05;;;;;;;6.05;3.30;;;13.00;98.20;;;;;;5088595;28;20012;-47
2023/06/14 04:13:31;;;;;;;8.32;3.25;;;13.00;98.10;;;;;;5077693;28;20021;-46
2023/06/14 04:15:57;;;;;;;5.75;3.17;;;13.00;98.50;;;;;;5085508;28;20024;-47
2023/06/14 04:18:23;;;;;;;6.90;3.60;;;13.10;98.60;;;;;;5087800;28;20432;-48
2023/06/14 04:20:49;;;;;;;6.55;3.30;;;13.10;99.00;;;;;;5089118;28;20035;-48
2023/06/14 04:23:18;;;;;;;4.57;3.08;;;13.10;99.10;;;;;;5078474;28;20393;-47
2023/06/14 04:25:49;;;;;;;6.10;3.28;;;13.10;99.70;;;;;;5068550;28;20099;-47
2023/06/14 04:28:19;;;;;;;5.72;3.08;;;13.10;99.60;;;;;;5076487;28;20386;-46
2023/06/14 04:30:44;;;;;;;4.20;2.97;;;13.10;99.50;;;;;;5068597;28;20478;-47
2023/06/14 04:33:11;;;;;;;4.30;3.25;;;13.20;99.80;;;;;;5068718;28;20032;-48
2023/06/14 04:35:37;;;;;;;5.15;3.42;;;13.20;99.90;;;;;;5068160;28;20103;-47
2023/06/14 04:38:04;;;;;;;4.07;3.25;;;13.20;99.90;;;;;;5085162;28;20035;-46
2023/06/14 04:40:31;;;;;;;6.03;2.75;;;13.20;99.90;;;;;;5076164;28;20017;-47
2023/06/14 04:42:57;;;;;;;6.85;3.35;;;13.30;99.90;;;;;;5076102;28;20054;-46
2023/06/14 04:45:23;;;;;;;4.32;3.40;;;13.30;99.90;;;;;;5067140;28;20028;-48
2023/06/14 04:47:50;;;;;;;4.25;3.50;;;13.30;99.90;;;;;;5068454;28;20039;-50
2023/06/14 04:50:16;;;;;;;4.25;3.40;;;13.40;99.90;;;;;;5068370;28;20020;-47
2023/06/14 04:52:42;;;;;;;5.80;3.42;;;13.40;99.90;;;;;;5074055;28;20023;-49
2023/06/14 04:55:08;;;;;;;11.65;3.50;;;13.50;99.90;;;;;;5070279;28;20017;-47
2023/06/14 04:57:35;;;;;;;9.82;3.25;;;13.60;99.90;;;;;;5068374;28;20016;-47
2023/06/14 05:00:00;;;;;;;6.53;3.15;;;13.60;99.90;;;;;;5068446;28;20062;-49
2023/06/14 05:02:26;;;;;;;4.60;3.33;;;13.70;99.90;;;;;;5060476;28;20405;-48
2023/06/14 05:04:53;;;;;;;6.80;4.47;;;13.70;99.90;;;;;;5067951;28;20048;-47
2023/06/14 05:07:19;;;;;;;8.85;3.50;;;13.80;99.90;;;;;;5080297;28;20027;-47
2023/06/14 05:09:45;;;;;;;5.43;3.22;;;13.90;99.90;;;;;;5071483;28;20029;-47
2023/06/14 05:12:11;;;;;;;7.68;3.88;;;13.90;99.90;;;;;;5067417;28;20016;-50
2023/06/14 05:14:37;;;;;;;4.18;2.88;;;13.90;99.90;;;;;;5066602;28;20492;-50
2023/06/14 05:17:02;;;;;;;5.40;3.70;;;14.00;99.90;;;;;;5064057;28;20533;-49
2023/06/14 05:19:28;;;;;;;4.25;3.63;;;14.00;99.90;;;;;;5075099;28;20031;-46
2023/06/14 05:21:54;;;;;;;4.90;3.83;;;14.00;99.90;;;;;;5077894;28;20444;-48
2023/06/14 05:24:20;;;;;;;5.35;3.22;;;14.00;99.90;;;;;;5076427;28;20024;-47
2023/06/14 05:26:46;;;;;;;4.78;3.75;;;14.10;99.90;;;;;;5078241;28;20020;-47
2023/06/14 05:29:12;;;;;;;5.72;4.03;;;14.10;99.90;;;;;;5077736;28;20103;-48
2023/06/14 05:31:37;;;;;;;7.70;3.65;;;14.20;99.90;;;;;;5073133;28;20112;-47
2023/06/14 05:34:03;;;;;;;5.35;3.85;;;14.20;99.90;;;;;;5077664;28;20028;-50
2023/06/14 05:36:29;;;;;;;7.22;4.00;;;14.20;99.90;;;;;;5074603;28;20021;-48
2023/06/14 05:38:59;;;;;;;6.78;3.92;;;14.30;99.90;;;;;;5080197;28;20366;-47
2023/06/14 05:41:28;;;;;;;5.47;3.70;;;14.40;99.90;;;;;;5079030;28;20078;-50
2023/06/14 05:43:55;;;;;;;5.18;3.95;;;14.40;99.90;;;;;;5076500;28;20489;-50
2023/06/14 05:46:24;;;;;;;8.52;3.80;;;14.50;99.90;;;;;;5072407;28;20474;-48
2023/06/14 05:48:50;;;;;;;4.97;3.70;;;14.50;99.90;;;;;;5072100;28;20474;-48
2023/06/14 05:51:18;;;;;;;4.82;3.72;;;14.60;99.90;;;;;;5090462;28;20030;-48
2023/06/14 05:53:50;;;;;;;7.00;4.63;;;14.60;99.90;;;;;;5072048;28;20021;-47
2023/06/14 05:56:20;;;;;;;7.45;3.95;;;14.70;99.90;;;;;;5069237;28;20025;-47
2023/06/14 05:58:46;;;;;;;5.18;4.25;;;14.80;99.90;;;;;;5071333;28;20394;-48
2023/06/14 06:01:13;;;;;;;9.10;4.15;;;14.80;99.90;;;;;;5071077;28;20024;-48
2023/06/14 06:03:38;;;;;;;5.80;4.20;;;14.90;99.90;;;;;;5078752;28;20390;-49
2023/06/14 06:06:04;;;;;;;4.20;3.35;;;15.00;99.90;;;;;;5074933;28;20120;-47
2023/06/14 06:08:31;;;;;;;5.63;4.18;;;15.10;99.90;;;;;;5091843;28;20145;-47
2023/06/14 06:10:57;;;;;;;5.93;3.90;;;15.30;99.90;;;;;;5076186;28;20028;-49
2023/06/14 06:13:22;;;;;;;7.47;3.95;;;15.40;99.90;;;;;;5070854;28;20382;-47
2023/06/14 06:15:48;;;;;;;7.30;3.65;;;15.50;99.90;;;;;;5069675;28;20474;-48
2023/06/14 06:18:14;;;;;;;9.65;4.05;;;15.60;99.90;;;;;;5071174;28;20029;-47
2023/06/14 06:20:39;;;;;;;5.13;4.07;;;15.60;99.80;;;;;;5071080;28;20565;-47
2023/06/14 06:23:05;;;;;;;7.35;3.90;;;15.70;99.10;;;;;;5079800;28;20432;-47
2023/06/14 06:25:31;;;;;;;7.00;4.28;;;15.80;98.50;;;;;;5079776;28;20024;-50
2023/06/14 06:27:57;;;;;;;5.82;3.92;;;16.00;97.80;;;;;;5071840;28;20082;-50
2023/06/14 06:30:23;;;;;;;11.50;4.30;;;16.00;97.50;;;;;;5088938;28;20020;-49
2023/06/14 06:32:49;;;;;;;14.70;4.50;;;16.10;97.40;;;;;;5091407;28;20031;-49
2023/06/14 06:35:14;;;;;;;4.32;3.65;;;16.20;97.20;;;;;;5082727;28;20028;-50
2023/06/14 06:37:41;;;;;;;5.25;3.60;;;16.30;96.70;;;;;;5081688;28;20111;-50
2023/06/14 06:40:08;;;;;;;6.30;3.55;;;16.30;96.60;;;;;;5087625;28;20476;-48
2023/06/14 06:42:34;;;;;;;4.65;3.60;;;16.40;96.00;;;;;;5076552;28;20083;-46
2023/06/14 06:44:59;;;;;;;9.25;3.83;;;16.60;95.70;;;;;;5078957;28;20053;-47
2023/06/14 06:47:25;;;;;;;6.28;3.50;;;16.60;95.70;;;;;;5074082;28;20323;-46
2023/06/14 06:49:51;;;;;;;4.53;3.50;;;16.70;94.90;;;;;;5079587;28;20108;-46
2023/06/14 06:52:16;;;;;;;4.55;3.58;;;16.80;94.90;;;;;;5079236;28;20025;-46
2023/06/14 06:54:42;;;;;;;4.80;3.53;;;16.90;95.20;;;;;;5084546;28;20301;-47
2023/06/14 06:57:08;;;;;;;7.80;4.72;;;16.90;94.80;;;;;;5090457;28;20069;-48
2023/06/14 06:59:34;;;;;;;5.90;3.85;;;17.00;94.70;;;;;;5079255;28;20024;-47
2023/06/14 07:02:00;;;;;;;7.18;3.92;;;17.20;94.40;;;;;;5071105;28;20066;-46
2023/06/14 07:04:25;;;;;;;5.80;3.42;;;17.40;94.00;;;;;;5077615;28;20397;-46
2023/06/14 07:06:51;;;;;;;7.47;3.58;;;17.40;93.20;;;;;;5079708;28;20538;-47
2023/06/14 07:09:17;;;;;;;4.13;3.67;;;17.50;93.40;;;;;;5089630;28;20095;-47
2023/06/14 07:11:46;;;;;;;22.98;17.40;;;17.50;92.10;;;;;;5070853;28;20024;-46
2023/06/14 07:14:12;;;;;;;39.83;27.58;;;17.60;92.50;;;;;;5087225;28;20043;-47
2023/06/14 07:16:38;;;;;;;6.70;3.97;;;17.70;92.30;;;;;;5074458;28;20040;-46
2023/06/14 07:19:04;;;;;;;6.35;3.47;;;17.90;91.90;;;;;;5089377;28;20043;-46
2023/06/14 07:21:30;;;;;;;4.00;3.55;;;18.00;91.70;;;;;;5078786;28;20028;-47
2023/06/14 07:23:56;;;;;;;4.18;3.15;;;18.20;90.60;;;;;;5085570;28;20496;-46
2023/06/14 07:26:22;;;;;;;7.18;3.50;;;18.40;90.00;;;;;;5079437;28;20024;-47
2023/06/14 07:28:48;;;;;;;4.70;2.85;;;18.50;88.00;;;;;;5084085;28;20458;-47
2023/06/14 07:31:15;;;;;;;3.95;2.90;;;18.70;86.80;;;;;;5081159;28;20024;-49
2023/06/14 07:33:41;;;;;;;4.30;3.10;;;18.70;84.90;;;;;;5077635;28;20052;-46
2023/06/14 07:36:07;;;;;;;6.15;2.92;;;18.80;83.90;;;;;;5068526;28;20056;-46
2023/06/14 07:38:33;;;;;;;4.78;3.13;;;19.00;83.60;;;;;;5084410;28;20020;-47
2023/06/14 07:40:59;;;;;;;5.20;3.10;;;19.00;83.30;;;;;;5083313;28;20051;-47
2023/06/14 07:43:24;;;;;;;4.50;3.20;;;19.10;80.60;;;;;;5088997;28;20468;-46
2023/06/14 07:45:50;;;;;;;6.10;3.33;;;19.20;80.70;;;;;;5089835;28;20027;-47
2023/06/14 07:48:16;;;;;;;4.47;3.17;;;19.20;80.20;;;;;;5090071;28;20557;-47
2023/06/14 07:50:42;;;;;;;6.18;3.20;;;19.30;81.60;;;;;;5081651;28;20465;-49
2023/06/14 07:53:07;;;;;;;5.97;3.00;;;19.50;80.80;;;;;;5082107;28;20078;-46
2023/06/14 07:55:36;;;;;;;4.53;3.40;;;19.80;79.00;;;;;;5076257;28;20028;-48
2023/06/14 07:58:06;;;;;;;4.05;3.00;;;20.00;79.40;;;;;;5077820;28;20123;-47
2023/06/14 08:00:31;;;;;;;6.22;3.00;;;20.10;78.70;;;;;;5089651;28;20020;-46
2023/06/14 08:02:59;;;;;;;6.68;3.00;;;20.30;78.00;;;;;;5083575;28;20032;-46
2023/06/14 08:05:28;;;;;;;3.97;3.35;;;20.50;77.20;;;;;;5077037;28;20435;-47
2023/06/14 08:07:54;;;;;;;3.55;2.60;;;20.80;76.90;;;;;;5083985;28;20382;-47
2023/06/14 08:10:20;;;;;;;3.58;2.85;;;21.20;75.90;;;;;;5079586;28;20134;-47
2023/06/14 08:12:45;;;;;;;3.10;2.80;;;22.00;73.40;;;;;;5076005;28;20056;-49
2023/06/14 08:15:11;;;;;;;3.55;2.55;;;23.40;69.50;;;;;;5085831;28;20020;-47
2023/06/14 08:17:37;;;;;;;3.53;2.70;;;24.40;66.40;;;;;;5077427;28;20016;-47
2023/06/14 08:20:05;;;;;;;2.90;2.58;;;25.30;62.40;;;;;;5078048;28;20535;-48
2023/06/14 08:22:33;;;;;;;142.02;126.93;;;25.90;60.90;;;;;;5080363;28;20130;-49
2023/06/14 08:25:02;;;;;;;19.92;16.52;;;26.90;58.70;;;;;;5079742;28;20024;-50
2023/06/14 08:27:27;;;;;;;6.22;4.68;;;27.60;57.30;;;;;;5073470;28;20111;-51
2023/06/14 08:29:53;;;;;;;2.65;2.40;;;28.20;54.70;;;;;;5074595;28;20084;-50
2023/06/14 08:32:19;;;;;;;3.60;2.60;;;28.80;53.40;;;;;;5076580;28;20373;-50
2023/06/14 08:34:44;;;;;;;7.97;2.25;;;29.20;51.60;;;;;;5077412;28;20020;-48
2023/06/14 08:37:10;;;;;;;5.95;2.55;;;28.90;51.70;;;;;;5085287;28;20493;-50
2023/06/14 08:39:36;;;;;;;5.25;2.42;;;29.70;51.90;;;;;;5086126;28;20482;-49
2023/06/14 08:42:03;;;;;;;2.95;2.30;;;30.60;49.70;;;;;;5077501;28;20499;-48
2023/06/14 08:44:29;;;;;;;3.15;2.13;;;31.00;48.60;;;;;;5079166;28;20015;-49
2023/06/14 08:46:59;;;;;;;3.58;2.20;;;31.80;48.00;;;;;;5082700;28;20031;-51
2023/06/14 08:49:25;;;;;;;2.58;1.80;;;32.30;47.30;;;;;;5075797;28;20024;-48
2023/06/14 08:51:58;;;;;;;2.22;2.03;;;32.70;47.30;;;;;;5074217;28;20494;-50
2023/06/14 08:54:27;;;;;;;2.97;2.03;;;34.00;44.70;;;;;;5080640;28;20024;-51
2023/06/14 08:56:57;;;;;;;3.15;1.98;;;34.20;43.80;;;;;;5083071;28;20201;-48
2023/06/14 08:59:25;;;;;;;3.10;1.90;;;34.10;43.60;;;;;;5068444;28;20028;-48
2023/06/14 09:01:52;;;;;;;2.35;2.10;;;34.50;44.20;;;;;;5075349;28;20021;-48
2023/06/14 09:04:19;;;;;;;3.13;2.00;;;34.70;42.50;;;;;;5076799;28;20496;-48
2023/06/14 09:06:45;;;;;;;7.47;2.40;;;34.20;42.60;;;;;;5072756;28;20111;-48
2023/06/14 09:09:12;;;;;;;4.53;2.00;;;34.20;44.10;;;;;;5080800;28;20577;-48
2023/06/14 09:11:38;;;;;;;3.65;2.10;;;34.60;43.30;;;;;;5088596;28;20020;-48
2023/06/14 09:14:04;;;;;;;2.35;1.90;;;35.20;41.70;;;;;;5081492;28;20028;-49
2023/06/14 09:16:32;;;;;;;4.10;1.67;;;35.00;42.00;;;;;;5087223;28;20024;-48
2023/06/14 09:18:58;;;;;;;3.35;1.52;;;35.20;42.80;;;;;;5078446;28;20174;-48
2023/06/14 09:21:23;;;;;;;4.43;2.13;;;35.60;42.60;;;;;;5089345;28;20531;-48
2023/06/14 09:23:49;;;;;;;1.98;1.83;;;35.40;41.80;;;;;;5081143;28;20024;-48
2023/06/14 09:26:19;;;;;;;2.10;1.88;;;36.00;41.70;;;;;;5072077;28;20040;-48
2023/06/14 09:28:49;;;;;;;5.45;2.13;;;35.90;42.00;;;;;;5072732;28;20012;-48
2023/06/14 09:31:19;;;;;;;4.30;2.22;;;35.80;42.00;;;;;;5089412;28;20081;-48
2023/06/14 09:33:47;;;;;;;3.55;2.08;;;36.10;41.10;;;;;;5085276;28;20019;-48
2023/06/14 09:36:21;;;;;;;2.60;2.40;;;35.90;41.10;;;;;;5086889;28;20492;-48
2023/06/14 09:38:56;;;;;;;2.83;2.30;;;36.00;41.70;;;;;;5078470;28;20096;-49
2023/06/14 09:41:43;;;;;;;3.75;2.15;;;35.90;41.60;;;;;;5083385;28;20028;-48
2023/06/14 09:44:10;;;;;;;3.50;2.60;;;35.70;42.30;;;;;;5072215;28;20387;-51
2023/06/14 09:46:36;;;;;;;4.30;2.60;;;35.60;42.60;;;;;;5091532;28;20027;-49
2023/06/14 09:49:04;;;;;;;4.53;2.50;;;35.90;41.90;;;;;;5093047;28;20341;-50
2023/06/14 09:51:30;;;;;;;4.68;2.83;;;35.70;41.40;;;;;;5082090;28;20496;-49
2023/06/14 09:54:01;;;;;;;4.53;3.10;;;34.90;41.90;;;;;;5072717;28;20095;-47
2023/06/14 09:56:29;;;;;;;11.02;3.30;;;33.20;43.60;;;;;;5088259;28;20062;-48
2023/06/14 09:58:56;;;;;;;6.55;3.05;;;32.10;46.10;;;;;;5077397;28;20061;-49
2023/06/14 10:01:25;;;;;;;7.28;4.72;;;31.80;46.50;;;;;;5074558;28;20016;-49
2023/06/14 10:03:53;;;;;;;26.50;19.30;;;31.00;46.90;;;;;;5071950;28;20577;-50
2023/06/14 10:06:21;;;;;;;5.68;4.40;;;31.10;47.30;;;;;;5082154;28;20020;-48
2023/06/14 10:08:48;;;;;;;11.57;3.60;;;31.20;47.30;;;;;;5087674;28;20052;-48
2023/06/14 10:11:14;;;;;;;6.25;3.55;;;30.50;48.50;;;;;;5068081;28;20016;-48
2023/06/14 10:13:39;;;;;;;5.65;3.08;;;30.90;47.60;;;;;;5073909;28;20336;-49
2023/06/14 10:16:10;;;;;;;4.53;3.33;;;30.50;48.20;;;;;;5082631;28;20477;-48
2023/06/14 10:18:51;;;;;;;6.35;3.90;;;29.50;50.10;;;;;;5071398;28;20075;-48
2023/06/14 10:21:31;;;;;;;5.35;4.40;;;29.50;50.70;;;;;;5070730;28;20119;-51
2023/06/14 10:24:03;;;;;;;6.75;3.45;;;29.20;51.60;;;;;;5085182;28;20111;-48
2023/06/14 10:26:28;;;;;;;6.05;4.05;;;30.50;51.60;;;;;;5071121;28;20027;-48
2023/06/14 10:29:20;;;;;;;7.55;4.00;;;31.20;49.40;;;;;;5078557;28;20413;-49
2023/06/14 10:31:50;;;;;;;7.55;4.30;;;30.20;49.80;;;;;;5068071;28;20060;-48
2023/06/14 10:34:26;;;;;;;5.82;4.18;;;29.70;51.30;;;;;;5087115;28;20055;-48
2023/06/14 10:37:06;;;;;;;5.63;4.13;;;30.20;50.60;;;;;;5082288;28;20119;-48
2023/06/14 10:39:41;;;;;;;;;;;29.90;50.00;;;;;;5082519;28;20430;-48
2023/06/14 10:42:07;;;;;;;7.18;3.28;;;29.60;49.80;;;;;;5074603;28;19952;-51
2023/06/14 10:44:37;;;;;;;7.38;3.70;;;30.70;48.30;;;;;;5070892;28;20024;-51
2023/06/14 10:47:21;;;;;;;7.88;4.10;;;32.10;48.20;;;;;;5069023;28;20021;-49
2023/06/14 10:49:51;;;;;;;7.63;3.40;;;32.10;48.10;;;;;;5074167;28;20032;-48
2023/06/14 10:52:18;;;;;;;;;;;33.10;47.20;;;;;;5073132;28;20661;-51
2023/06/14 10:55:06;;;;;;;4.00;3.30;;;32.40;47.40;;;;;;5074112;28;19904;-49
2023/06/14 10:57:35;;;;;;;4.97;3.40;;;31.40;48.10;;;;;;5081868;28;20023;-50
2023/06/14 11:00:13;;;;;;;9.77;3.28;;;30.40;49.00;;;;;;5080420;28;20039;-47
2023/06/14 11:03:10;;;;;;;6.43;3.83;;;30.20;49.10;;;;;;5078951;28;20072;-49
2023/06/14 11:06:13;;;;;;;5.47;3.47;;;30.40;48.90;;;;;;5069480;28;20032;-51
2023/06/14 11:09:01;;;;;;;4.22;3.40;;;30.10;48.50;;;;;;5074779;28;20040;-50
2023/06/14 11:11:33;;;;;;;10.18;3.28;;;30.30;48.70;;;;;;5070108;28;20371;-48
2023/06/14 11:14:00;;;;;;;6.63;3.65;;;31.90;48.00;;;;;;5071850;28;20027;-51
2023/06/14 11:16:28;;;;;;;3.80;3.40;;;31.90;47.90;;;;;;5087862;28;20039;-49
2023/06/14 11:18:53;;;;;;;6.32;3.20;;;31.70;47.20;;;;;;5081394;28;20020;-50
2023/06/14 11:21:19;;;;;;;3.80;2.88;;;31.40;47.50;;;;;;5089533;28;20109;-48
2023/06/14 11:23:52;;;;;;;7.70;3.10;;;31.30;47.80;;;;;;5087093;28;20474;-47
2023/06/14 11:26:29;;;;;;;50.38;36.42;;;32.30;45.70;;;;;;5078220;28;20012;-50
2023/06/14 11:28:58;;;;;;;19.33;14.48;;;33.10;46.10;;;;;;5083401;28;20056;-48
2023/06/14 11:31:24;;;;;;;;;;;33.20;45.60;;;;;;5074085;28;20480;-51
2023/06/14 11:33:51;;;;;;;5.90;3.55;;;33.30;44.00;;;;;;5089243;28;19955;-49
2023/06/14 11:36:16;;;;;;;9.80;3.60;;;32.70;44.20;;;;;;5081019;28;20024;-47
2023/06/14 11:38:42;;;;;;;3.50;3.20;;;33.10;44.60;;;;;;5081333;28;20028;-48
2023/06/14 11:41:07;;;;;;;4.80;3.30;;;32.70;44.80;;;;;;5073421;28;20437;-48
2023/06/14 11:43:35;;;;;;;6.18;3.38;;;31.50;45.90;;;;;;5070113;28;20047;-47
2023/06/14 11:46:01;;;;;;;6.53;3.38;;;30.90;45.90;;;;;;5073928;28;20229;-50
2023/06/14 11:48:45;;;;;;;5.05;3.35;;;30.40;47.20;;;;;;5072436;28;20016;-50
2023/06/14 11:51:11;;;;;;;8.85;3.83;;;30.30;47.30;;;;;;5085268;28;20104;-47
2023/06/14 11:53:37;;;;;;;6.35;4.07;;;29.40;48.10;;;;;;5079223;28;20120;-50
2023/06/14 11:56:03;;;;;;;6.93;4.15;;;28.70;49.90;;;;;;5077885;28;20195;-47
2023/06/14 11:58:30;;;;;;;8.40;3.67;;;28.10;50.90;;;;;;5085997;28;20059;-47
2023/06/14 12:00:56;;;;;;;8.95;3.70;;;27.40;51.40;;;;;;5083731;28;20024;-49
2023/06/14 12:03:27;;;;;;;10.13;3.85;;;27.10;51.90;;;;;;5077718;28;20031;-47
2023/06/14 12:06:27;;;;;;;6.80;4.15;;;26.80;52.50;;;;;;5083438;28;20119;-50
2023/06/14 12:08:56;;;;;;;4.15;3.53;;;26.70;53.10;;;;;;5060026;28;20055;-50
2023/06/14 12:11:22;;;;;;;15.52;4.38;;;26.70;53.10;;;;;;5081062;28;20017;-49
2023/06/14 12:13:49;;;;;;;7.15;4.28;;;26.70;52.80;;;;;;5072808;28;20466;-46
2023/06/14 12:16:14;;;;;;;5.60;3.40;;;26.50;52.80;;;;;;5089076;28;20232;-46
2023/06/14 12:18:40;;;;;;;8.75;3.92;;;27.00;52.40;;;;;;5085383;28;20024;-47
2023/06/14 12:21:07;;;;;;;6.28;3.83;;;26.90;51.90;;;;;;5077606;28;20032;-48
2023/06/14 12:23:49;;;;;;;6.80;3.97;;;26.50;53.20;;;;;;5069016;28;20028;-46
2023/06/14 12:26:17;;;;;;;8.30;4.32;;;26.40;53.70;;;;;;5075787;28;20021;-47
2023/06/14 12:28:45;;;;;;;9.25;6.28;;;26.30;52.80;;;;;;5084460;28;20028;-47
2023/06/14 12:31:13;;;;;;;288.67;235.43;;;26.20;53.40;;;;;;5084529;28;20071;-47
2023/06/14 12:33:40;;;;;;;18.67;13.13;;;26.30;53.00;;;;;;5081142;28;20443;-47
2023/06/14 12:36:10;;;;;;;9.43;4.10;;;26.30;52.70;;;;;;5080075;28;20044;-47
2023/06/14 12:38:37;;;;;;;7.05;3.67;;;27.00;53.00;;;;;;5073207;28;20060;-49
2023/06/14 12:41:03;;;;;;;5.95;3.42;;;27.80;51.40;;;;;;5073308;28;20032;-49
2023/06/14 12:43:29;;;;;;;8.55;4.82;;;28.20;51.10;;;;;;5071981;28;20036;-48
2023/06/14 12:45:54;;;;;;;13.10;5.00;;;28.20;49.60;;;;;;5073834;28;20036;-48
2023/06/14 12:48:21;;;;;;;6.25;4.60;;;28.10;50.10;;;;;;5072868;28;20063;-47